createdAt,value
2019-04-03T00:12:31.951Z,16.48
2019-04-03T00:32:41.425Z,13.64
2019-04-03T00:52:53.190Z,14.51
2019-04-03T01:12:52.715Z,14.74
2019-04-03T01:33:02.159Z,13.34
2019-04-03T01:53:11.582Z,11.10
2019-04-03T02:13:21.891Z,19.05
2019-04-03T02:33:30.252Z,18.19
2019-04-03T02:53:39.479Z,21.29
2019-04-03T03:13:48.985Z,27.92
2019-04-03T03:34:02.049Z,15.40
2019-04-03T03:54:07.672Z,16.55
2019-04-03T04:14:21.118Z,21.86
2019-04-03T04:34:28.343Z,32.15
2019-04-03T04:54:30.631Z,32.06
2019-04-03T05:14:28.983Z,33.93
2019-04-03T05:34:38.336Z,31.96
2019-04-03T05:54:50.056Z,25.03
2019-04-03T06:14:50.112Z,18.85
2019-04-03T06:34:58.662Z,17.25
2019-04-03T06:55:08.154Z,15.76
2019-04-03T07:15:17.642Z,19.43
2019-04-03T07:35:27.184Z,23.69
2019-04-03T07:55:38.919Z,17.42
2019-04-03T08:15:38.756Z,16.37
2019-04-03T08:35:48.003Z,16.76
2019-04-03T08:55:57.505Z,16.98
2019-04-03T09:16:11.664Z,18.85
2019-04-03T09:36:11.306Z,16.32
2019-04-03T09:56:20.711Z,16.83
2019-04-03T10:16:30.156Z,20.40
2019-04-03T10:36:42.065Z,17.68
2019-04-03T10:56:39.806Z,17.18
2019-04-03T11:16:49.095Z,18.77
2019-04-03T11:36:59.705Z,15.19
2019-04-03T11:57:06.534Z,14.63
2019-04-03T12:17:15.676Z,13.21
2019-04-03T12:37:25.724Z,12.63
2019-04-03T12:57:38.698Z,12.77
2019-04-03T13:17:35.953Z,12.72
2019-04-03T13:37:47.580Z,16.47
2019-04-03T13:57:49.211Z,15.70
2019-04-03T14:17:58.427Z,15.27
2019-04-03T14:38:07.740Z,14.02
2019-04-03T14:58:08.833Z,14.11
2019-04-03T15:18:10.170Z,15.51
2019-04-03T15:38:18.698Z,14.93
2019-04-03T15:58:27.178Z,14.50
2019-04-03T16:18:37.879Z,14.90
2019-04-03T16:38:44.697Z,13.72
2019-04-03T16:58:53.443Z,21.28
2019-04-03T17:19:02.930Z,18.38
2019-04-03T17:39:12.521Z,17.41
2019-04-03T17:59:21.925Z,18.79
2019-04-03T18:19:37.480Z,19.92
2019-04-03T18:39:41.063Z,15.86
2019-04-03T18:59:49.511Z,15.41
2019-04-03T19:20:09.711Z,16.36
2019-04-03T19:40:09.683Z,13.76
2019-04-03T20:00:17.333Z,12.86
2019-04-03T20:20:29.326Z,12.73
2019-04-03T20:40:35.917Z,11.82
2019-04-03T21:00:49.401Z,11.18
2019-04-03T21:20:56.771Z,9.17
2019-04-03T21:40:58.559Z,11.26
2019-04-03T22:00:58.641Z,8.39
2019-04-03T22:21:07.180Z,10.16
2019-04-03T22:41:16.579Z,11.06
2019-04-03T23:01:29.802Z,15.45
2019-04-03T23:21:27.384Z,11.20
2019-04-03T23:41:37.033Z,9.36
